createdAt,value
2019-06-07T00:00:52.462Z,101256.39
2019-06-07T00:03:29.468Z,101260.98
2019-06-07T00:05:53.581Z,101256.64
2019-06-07T00:08:28.515Z,101258.45
2019-06-07T00:10:54.657Z,101251.14
2019-06-07T00:13:24.246Z,101246.31
2019-06-07T00:15:53.753Z,101244.30
2019-06-07T00:18:26.011Z,101244.03
2019-06-07T00:20:55.010Z,101245.47
2019-06-07T00:23:24.512Z,101243.87
2019-06-07T00:25:54.050Z,101246.39
2019-06-07T00:28:23.555Z,101242.53
2019-06-07T00:30:53.240Z,101246.24
2019-06-07T00:33:24.795Z,101238.75
2019-06-07T00:35:54.049Z,101239.32
2019-06-07T00:38:23.554Z,101235.11
2019-06-07T00:40:53.302Z,101228.23
2019-06-07T00:43:27.948Z,101239.05
2019-06-07T00:45:54.024Z,101246.39
2019-06-07T00:48:30.849Z,101242.18
2019-06-07T00:50:55.203Z,101246.89
2019-06-07T00:53:31.577Z,101251.89
2019-06-07T00:55:57.676Z,101258.75
2019-06-07T00:58:29.328Z,101261.53
2019-06-07T01:00:58.556Z,101258.52
2019-06-07T01:03:28.174Z,101260.73
2019-06-07T01:05:57.779Z,101258.34
2019-06-07T01:08:29.843Z,101245.39
2019-06-07T01:10:58.802Z,101244.03
2019-06-07T01:13:28.396Z,101256.88
2019-06-07T01:15:58.046Z,101256.61
2019-06-07T01:18:39.098Z,101253.55
2019-06-07T01:20:59.011Z,101243.50
2019-06-07T01:24:05.453Z,101240.31
2019-06-07T01:26:01.794Z,101245.17
2019-06-07T01:28:31.315Z,101246.39
2019-06-07T01:31:01.113Z,101255.23
2019-06-07T01:33:49.830Z,101262.16
2019-06-07T01:36:02.079Z,101252.03
2019-06-07T01:38:31.576Z,101244.63
2019-06-07T01:41:01.209Z,101240.19
2019-06-07T01:43:31.273Z,101251.09
2019-06-07T01:46:01.065Z,101257.94
2019-06-07T01:48:48.416Z,101248.62
2019-06-07T01:51:03.083Z,101238.98
2019-06-07T01:53:32.615Z,101236.20
2019-06-07T01:56:02.269Z,101225.23
2019-06-07T01:58:31.976Z,101230.70
2019-06-07T02:01:01.553Z,101234.16
2019-06-07T02:03:33.120Z,101235.45
2019-06-07T02:06:02.813Z,101237.77
2019-06-07T02:08:34.189Z,101239.52
2019-06-07T02:11:04.305Z,101251.66
2019-06-07T02:13:33.916Z,101248.98
2019-06-07T02:16:03.550Z,101243.81
2019-06-07T02:18:34.979Z,101240.87
2019-06-07T02:21:04.516Z,101243.50
2019-06-07T02:23:34.105Z,101245.95
2019-06-07T02:26:03.768Z,101244.86
2019-06-07T02:28:44.253Z,101244.20
2019-06-07T02:31:04.621Z,101242.91
2019-06-07T02:33:39.999Z,101229.80
2019-06-07T02:36:05.767Z,101232.66
2019-06-07T02:38:37.425Z,101234.05
2019-06-07T02:41:06.934Z,101241.25
2019-06-07T02:43:37.314Z,101239.84
2019-06-07T02:46:25.118Z,101239.97
2019-06-07T02:48:43.030Z,101238.08
2019-06-07T02:51:12.708Z,101231.70
2019-06-07T02:53:42.221Z,101237.08
2019-06-07T02:56:37.743Z,101243.03
2019-06-07T02:58:43.037Z,101237.75
2019-06-07T03:01:12.683Z,101233.31
2019-06-07T03:03:42.473Z,101241.20
2019-06-07T03:06:14.829Z,101241.25
2019-06-07T03:08:47.060Z,101239.67
2019-06-07T03:11:17.426Z,101239.13
2019-06-07T03:13:48.490Z,101237.79
2019-06-07T03:16:37.249Z,101237.59
2019-06-07T03:19:10.189Z,101243.56
2019-06-07T03:21:41.931Z,101247.09
2019-06-07T03:24:11.515Z,101257.18
2019-06-07T03:27:32.178Z,101254.94
2019-06-07T03:29:13.140Z,101251.55
2019-06-07T03:31:47.606Z,101248.42
2019-06-07T03:34:14.251Z,101243.66
2019-06-07T03:36:44.150Z,101240.44
2019-06-07T03:39:14.132Z,101249.44
2019-06-07T03:42:04.562Z,101250.73
2019-06-07T03:44:15.162Z,101239.66
2019-06-07T03:46:44.774Z,101237.50
2019-06-07T03:49:14.579Z,101239.91
2019-06-07T03:51:44.408Z,101244.94
2019-06-07T03:54:14.146Z,101242.39
2019-06-07T03:56:44.186Z,101244.05
2019-06-07T03:59:13.909Z,101243.41
2019-06-07T04:01:43.624Z,101241.67
2019-06-07T04:04:13.330Z,101248.05
2019-06-07T04:06:43.339Z,101242.18
2019-06-07T04:09:13.235Z,101238.69
2019-06-07T04:11:42.910Z,101243.23
2019-06-07T04:14:12.620Z,101244.73
2019-06-07T04:16:44.816Z,101252.65
2019-06-07T04:19:13.874Z,101253.06
2019-06-07T04:21:43.759Z,101249.95
2019-06-07T04:24:14.188Z,101247.88
2019-06-07T04:26:46.719Z,101245.83
2019-06-07T04:29:35.696Z,101232.45
2019-06-07T04:31:47.315Z,101231.42
2019-06-07T04:34:17.333Z,101234.45
2019-06-07T04:36:58.632Z,101247.19
2019-06-07T04:39:20.757Z,101258.08
2019-06-07T04:41:51.928Z,101259.58
2019-06-07T04:44:23.732Z,101258.56
2019-06-07T04:46:54.906Z,101265.51
2019-06-07T04:49:25.603Z,101258.78
2019-06-07T04:51:57.770Z,101266.66
2019-06-07T04:54:27.519Z,101265.62
2019-06-07T04:56:57.310Z,101256.02
2019-06-07T05:00:07.390Z,101254.79
2019-06-07T05:01:59.341Z,101245.00
2019-06-07T05:04:31.332Z,101250.87
2019-06-07T05:07:00.424Z,101246.17
2019-06-07T05:09:30.277Z,101253.59
2019-06-07T05:12:00.245Z,101250.64
2019-06-07T05:14:32.806Z,101245.44
2019-06-07T05:17:02.234Z,101247.77
2019-06-07T05:19:35.266Z,101249.92
2019-06-07T05:22:05.103Z,101253.24
2019-06-07T05:24:37.656Z,101258.55
2019-06-07T05:27:05.752Z,101261.19
2019-06-07T05:29:38.359Z,101263.84
2019-06-07T05:32:07.123Z,101279.89
2019-06-07T05:34:39.206Z,101283.78
2019-06-07T05:37:11.921Z,101284.71
2019-06-07T05:39:42.590Z,101282.49
2019-06-07T05:42:10.575Z,101283.55
2019-06-07T05:44:45.159Z,101285.88
2019-06-07T05:47:11.605Z,101286.28
2019-06-07T05:49:44.535Z,101277.16
2019-06-07T05:52:12.513Z,101276.98
2019-06-07T05:54:43.182Z,101282.13
2019-06-07T05:57:13.208Z,101282.58
2019-06-07T05:59:45.047Z,101288.84
2019-06-07T06:02:22.647Z,101282.94
2019-06-07T06:04:48.997Z,101286.63
2019-06-07T06:07:16.751Z,101278.14
2019-06-07T06:09:47.518Z,101274.47
2019-06-07T06:12:34.245Z,101271.81
2019-06-07T06:14:48.704Z,101275.13
2019-06-07T06:17:18.227Z,101272.86
2019-06-07T06:19:52.447Z,101277.67
2019-06-07T06:22:19.137Z,101270.73
2019-06-07T06:25:28.818Z,101277.81
2019-06-07T06:28:02.831Z,101271.20
2019-06-07T06:29:52.631Z,101283.36
2019-06-07T06:34:55.523Z,101272.80
2019-06-07T06:37:24.718Z,101268.48
2019-06-07T06:39:54.200Z,101260.01
2019-06-07T06:42:23.769Z,101263.61
2019-06-07T06:44:54.255Z,101259.80
2019-06-07T06:47:24.097Z,101253.23
2019-06-07T06:49:54.456Z,101259.15
2019-06-07T06:52:25.367Z,101267.74
2019-06-07T06:55:00.426Z,101273.23
2019-06-07T06:57:26.186Z,101275.11
2019-06-07T06:59:55.723Z,101279.27
2019-06-07T07:02:25.502Z,101277.06
2019-06-07T07:04:55.293Z,101267.61
2019-06-07T07:07:27.252Z,101261.10
2019-06-07T07:09:59.538Z,101258.43
2019-06-07T07:12:29.263Z,101262.58
2019-06-07T07:14:58.864Z,101264.39
2019-06-07T07:17:48.013Z,101266.50
2019-06-07T07:19:59.701Z,101270.14
2019-06-07T07:22:29.584Z,101263.73
2019-06-07T07:24:59.345Z,101260.11
2019-06-07T07:27:28.848Z,101261.89
2019-06-07T07:30:34.814Z,101270.50
2019-06-07T07:32:29.754Z,101265.14
2019-06-07T07:35:00.671Z,101269.11
2019-06-07T07:37:33.214Z,101268.05
2019-06-07T07:40:54.831Z,101267.97
2019-06-07T07:42:33.993Z,101261.07
2019-06-07T07:45:03.985Z,101274.17
2019-06-07T07:47:33.889Z,101274.77
2019-06-07T07:50:05.211Z,101272.55
2019-06-07T07:52:36.598Z,101268.05
2019-06-07T07:55:07.098Z,101260.77
2019-06-07T07:57:36.766Z,101254.52
2019-06-07T08:00:48.528Z,101253.30
2019-06-07T08:02:41.317Z,101240.02
2019-06-07T08:05:23.459Z,101239.68
2019-06-07T08:07:44.267Z,101239.36
2019-06-07T08:10:14.356Z,101238.31
2019-06-07T08:13:00.100Z,101234.02
2019-06-07T08:15:16.446Z,101232.73
2019-06-07T08:17:47.235Z,101240.29
2019-06-07T08:20:18.056Z,101239.89
2019-06-07T08:22:47.761Z,101227.20
2019-06-07T08:25:17.588Z,101225.45
2019-06-07T08:27:47.166Z,101222.69
2019-06-07T08:30:47.370Z,101227.11
2019-06-07T08:32:51.534Z,101225.91
2019-06-07T08:36:03.235Z,101219.22
2019-06-07T08:38:21.488Z,101207.80
2019-06-07T08:40:24.570Z,101215.18
2019-06-07T08:43:15.211Z,101210.58
2019-06-07T08:45:26.318Z,101205.27
2019-06-07T08:47:57.956Z,101199.88
2019-06-07T08:50:27.430Z,101207.17
2019-06-07T08:53:05.098Z,101208.84
2019-06-07T08:55:28.525Z,101205.80
2019-06-07T08:58:05.769Z,101208.38
2019-06-07T09:00:45.638Z,101200.97
2019-06-07T09:03:05.158Z,101208.59
2019-06-07T09:05:33.103Z,101205.98
2019-06-07T09:08:23.823Z,101207.39
2019-06-07T09:10:35.152Z,101196.18
2019-06-07T09:13:11.400Z,101199.24
2019-06-07T09:15:36.473Z,101192.22
2019-06-07T09:20:49.548Z,101189.58
2019-06-07T09:23:19.326Z,101188.30
2019-06-07T09:26:04.859Z,101186.78
2019-06-07T09:28:21.106Z,101178.17
2019-06-07T09:30:50.758Z,101174.61
2019-06-07T09:33:20.344Z,101173.84
2019-06-07T09:35:49.935Z,101163.31
2019-06-07T09:38:25.789Z,101160.16
2019-06-07T09:40:50.811Z,101158.25
2019-06-07T09:45:51.633Z,101141.87
2019-06-07T09:49:01.313Z,101145.47
2019-06-07T09:50:52.850Z,101143.51
2019-06-07T09:53:23.487Z,101145.28
2019-06-07T09:55:53.230Z,101144.06
2019-06-07T10:00:54.319Z,101145.57
2019-06-07T10:03:23.877Z,101143.72
2019-06-07T10:05:53.579Z,101143.08
2019-06-07T10:09:42.528Z,101137.91
2019-06-07T10:10:54.440Z,101136.50
2019-06-07T10:13:24.393Z,101132.78
2019-06-07T10:15:53.923Z,101130.05
2019-06-07T10:18:23.428Z,101138.34
2019-06-07T10:20:52.968Z,101135.28
2019-06-07T10:23:22.477Z,101129.84
2019-06-07T10:25:52.309Z,101134.77
2019-06-07T10:28:22.219Z,101141.85
2019-06-07T10:30:51.804Z,101138.66
2019-06-07T10:33:21.383Z,101137.80
2019-06-07T10:35:51.264Z,101134.19
2019-06-07T10:38:20.783Z,101137.11
2019-06-07T10:40:50.295Z,101136.11
2019-06-07T10:43:19.943Z,101132.37
2019-06-07T10:45:49.518Z,101128.84
2019-06-07T10:48:19.082Z,101120.45
2019-06-07T10:50:48.673Z,101125.90
2019-06-07T10:53:18.200Z,101116.27
2019-06-07T10:55:47.778Z,101107.85
2019-06-07T10:58:17.551Z,101115.26
2019-06-07T11:00:47.464Z,101106.16
2019-06-07T11:03:16.988Z,101098.06
2019-06-07T11:05:46.579Z,101101.95
2019-06-07T11:08:16.196Z,101093.65
2019-06-07T11:10:45.704Z,101091.23
2019-06-07T11:13:15.233Z,101087.27
2019-06-07T11:15:44.782Z,101084.16
2019-06-07T11:18:14.548Z,101077.52
2019-06-07T11:20:47.050Z,101073.86
2019-06-07T11:23:16.551Z,101075.05
2019-06-07T11:25:46.106Z,101062.00
2019-06-07T11:28:15.635Z,101058.50
2019-06-07T11:30:45.184Z,101070.70
2019-06-07T11:33:16.306Z,101055.42
2019-06-07T11:35:46.224Z,101057.15
2019-06-07T11:38:15.718Z,101048.23
2019-06-07T11:40:45.346Z,101048.45
2019-06-07T11:43:15.089Z,101039.59
2019-06-07T11:45:44.584Z,101028.56
2019-06-07T11:48:15.378Z,101016.37
2019-06-07T11:50:45.484Z,101017.59
2019-06-07T11:53:14.990Z,101009.98
2019-06-07T11:55:44.570Z,101003.89
2019-06-07T11:58:17.298Z,101001.33
2019-06-07T12:00:45.617Z,101001.53
2019-06-07T12:03:15.919Z,100994.91
2019-06-07T12:05:45.635Z,100991.42
2019-06-07T12:08:16.076Z,100981.35
2019-06-07T12:10:45.788Z,100987.05
2019-06-07T12:13:15.910Z,100987.56
2019-06-07T12:15:49.203Z,100978.86
2019-06-07T12:18:19.654Z,100962.86
2019-06-07T12:20:49.576Z,100964.45
2019-06-07T12:23:20.135Z,100962.45
2019-06-07T12:25:49.844Z,100960.04
2019-06-07T12:28:20.899Z,100950.91
2019-06-07T12:30:50.567Z,100959.16
2019-06-07T12:33:20.135Z,100973.28
2019-06-07T12:35:49.675Z,100959.57
2019-06-07T12:38:20.884Z,100959.77
2019-06-07T12:40:57.448Z,100954.20
2019-06-07T12:43:23.312Z,100955.03
2019-06-07T12:45:52.989Z,100939.48
2019-06-07T12:48:25.808Z,100947.55
2019-06-07T12:50:53.873Z,100940.19
2019-06-07T12:53:26.688Z,100946.86
2019-06-07T12:55:54.623Z,100932.77
2019-06-07T12:58:32.610Z,100928.87
2019-06-07T13:00:59.373Z,100915.77
2019-06-07T13:03:26.735Z,100910.84
2019-06-07T13:05:56.340Z,100918.83
2019-06-07T13:08:25.914Z,100912.88
2019-06-07T13:10:55.505Z,100909.11
2019-06-07T13:13:25.022Z,100919.64
2019-06-07T13:15:54.543Z,100914.78
2019-06-07T13:18:25.266Z,100907.58
2019-06-07T13:20:55.755Z,100902.97
2019-06-07T13:23:25.443Z,100893.20
2019-06-07T13:25:54.944Z,100885.74
2019-06-07T13:28:24.831Z,100886.20
2019-06-07T13:30:54.438Z,100887.27
2019-06-07T13:33:25.652Z,100887.39
2019-06-07T13:35:55.289Z,100883.27
2019-06-07T13:38:29.068Z,100883.95
2019-06-07T13:40:58.830Z,100882.80
2019-06-07T13:43:28.690Z,100872.69
2019-06-07T13:45:58.187Z,100865.92
2019-06-07T13:48:27.989Z,100868.20
2019-06-07T13:50:57.631Z,100867.81
2019-06-07T13:53:27.138Z,100867.16
2019-06-07T13:55:56.644Z,100864.05
2019-06-07T13:58:26.470Z,100863.98
2019-06-07T14:00:56.094Z,100852.03
2019-06-07T14:03:29.282Z,100853.92
2019-06-07T14:05:57.199Z,100847.34
2019-06-07T14:08:27.320Z,100842.86
2019-06-07T14:10:56.964Z,100838.48
2019-06-07T14:13:27.988Z,100847.78
2019-06-07T14:15:57.599Z,100854.67
2019-06-07T14:18:28.625Z,100838.19
2019-06-07T14:20:59.252Z,100825.98
2019-06-07T14:23:45.939Z,100828.84
2019-06-07T14:26:00.056Z,100828.50
2019-06-07T14:28:31.917Z,100810.33
2019-06-07T14:31:00.827Z,100824.22
2019-06-07T14:33:31.865Z,100806.63
2019-06-07T14:36:01.867Z,100805.16
2019-06-07T14:38:35.415Z,100805.37
2019-06-07T14:41:02.673Z,100805.63
2019-06-07T14:43:33.956Z,100810.48
2019-06-07T14:46:03.437Z,100808.22
2019-06-07T14:48:33.028Z,100804.72
2019-06-07T14:51:02.819Z,100805.08
2019-06-07T14:53:33.065Z,100797.55
2019-06-07T14:56:02.810Z,100799.47
2019-06-07T14:58:38.141Z,100791.45
2019-06-07T15:01:03.697Z,100792.19
2019-06-07T15:03:34.808Z,100790.41
2019-06-07T15:06:04.760Z,100781.51
2019-06-07T15:08:34.934Z,100770.95
2019-06-07T15:11:04.614Z,100774.50
2019-06-07T15:13:35.620Z,100764.69
2019-06-07T15:16:05.339Z,100761.62
2019-06-07T15:18:36.126Z,100761.62
2019-06-07T15:21:07.052Z,100752.63
2019-06-07T15:23:36.550Z,100753.90
2019-06-07T15:26:06.195Z,100757.84
2019-06-07T15:28:36.758Z,100738.80
2019-06-07T15:31:07.048Z,100744.69
2019-06-07T15:33:37.961Z,100723.59
2019-06-07T15:36:08.277Z,100719.22
2019-06-07T15:38:39.211Z,100714.91
2019-06-07T15:41:10.768Z,100707.36
2019-06-07T15:43:40.316Z,100714.48
2019-06-07T15:46:09.878Z,100702.09
2019-06-07T15:48:40.188Z,100707.23
2019-06-07T15:51:10.775Z,100699.22
2019-06-07T15:53:44.188Z,100693.29
2019-06-07T15:56:11.837Z,100689.13
2019-06-07T15:58:41.473Z,100687.22
2019-06-07T16:01:11.101Z,100677.97
2019-06-07T16:03:42.111Z,100688.42
2019-06-07T16:06:12.024Z,100669.23
2019-06-07T16:08:42.616Z,100674.64
2019-06-07T16:11:12.290Z,100671.05
2019-06-07T16:13:42.842Z,100662.25
2019-06-07T16:16:14.073Z,100665.69
2019-06-07T16:18:44.258Z,100659.84
2019-06-07T16:21:14.357Z,100651.36
2019-06-07T16:23:44.177Z,100644.42
2019-06-07T16:26:13.853Z,100641.68
2019-06-07T16:28:44.669Z,100639.45
2019-06-07T16:31:14.336Z,100631.98
2019-06-07T16:33:45.121Z,100632.83
2019-06-07T16:36:14.941Z,100630.12
2019-06-07T16:38:44.463Z,100631.11
2019-06-07T16:41:13.962Z,100635.88
2019-06-07T16:43:44.767Z,100633.47
2019-06-07T16:46:14.574Z,100625.94
2019-06-07T16:48:45.150Z,100621.14
2019-06-07T16:51:14.760Z,100620.89
2019-06-07T16:53:44.582Z,100610.88
2019-06-07T16:56:14.214Z,100617.34
2019-06-07T16:58:44.408Z,100614.85
2019-06-07T17:01:14.058Z,100614.11
2019-06-07T17:03:43.620Z,100602.77
2019-06-07T17:06:13.117Z,100608.11
2019-06-07T17:08:44.140Z,100600.13
2019-06-07T17:11:13.871Z,100600.72
2019-06-07T17:13:44.421Z,100597.41
2019-06-07T17:16:13.986Z,100603.48
2019-06-07T17:18:45.205Z,100608.17
2019-06-07T17:21:14.857Z,100610.84
2019-06-07T17:23:45.330Z,100609.77
2019-06-07T17:26:15.019Z,100618.12
2019-06-07T17:28:45.816Z,100612.07
2019-06-07T17:31:15.388Z,100611.48
2019-06-07T17:33:46.041Z,100611.48
2019-06-07T17:36:15.673Z,100612.82
2019-06-07T17:38:46.451Z,100611.31
2019-06-07T17:41:16.171Z,100609.16
2019-06-07T17:43:52.053Z,100615.61
2019-06-07T17:46:17.144Z,100619.08
2019-06-07T17:48:49.802Z,100609.31
2019-06-07T17:51:19.424Z,100606.20
2019-06-07T17:53:49.956Z,100599.81
2019-06-07T17:56:19.623Z,100597.67
2019-06-07T17:58:50.498Z,100600.51
2019-06-07T18:01:20.256Z,100607.53
2019-06-07T18:03:51.160Z,100595.81
2019-06-07T18:06:21.170Z,100603.02
2019-06-07T18:08:51.881Z,100592.75
2019-06-07T18:11:21.944Z,100598.47
2019-06-07T18:14:06.875Z,100613.16
2019-06-07T18:16:22.720Z,100603.52
2019-06-07T18:18:52.802Z,100601.94
2019-06-07T18:21:22.461Z,100601.70
2019-06-07T18:23:53.001Z,100604.13
2019-06-07T18:26:26.941Z,100601.59
2019-06-07T18:28:56.705Z,100593.41
2019-06-07T18:31:26.296Z,100595.48
2019-06-07T18:33:55.920Z,100586.37
2019-06-07T18:36:25.592Z,100586.44
2019-06-07T18:38:55.210Z,100586.80
2019-06-07T18:41:24.809Z,100578.09
2019-06-07T18:43:55.360Z,100583.91
2019-06-07T18:46:25.175Z,100580.25
2019-06-07T18:48:54.874Z,100580.48
2019-06-07T18:51:24.432Z,100577.10
2019-06-07T18:53:54.030Z,100577.20
2019-06-07T18:56:23.925Z,100578.89
2019-06-07T18:58:53.600Z,100591.41
2019-06-07T19:01:23.272Z,100592.23
2019-06-07T19:03:53.948Z,100588.28
2019-06-07T19:06:23.757Z,100589.63
2019-06-07T19:08:55.547Z,100588.22
2019-06-07T19:11:24.804Z,100585.73
2019-06-07T19:13:55.054Z,100592.09
2019-06-07T19:16:24.621Z,100594.36
2019-06-07T19:18:54.221Z,100604.62
2019-06-07T19:21:23.826Z,100599.57
2019-06-07T19:23:53.845Z,100609.52
2019-06-07T19:26:23.768Z,100601.41
2019-06-07T19:28:53.301Z,100603.61
2019-06-07T19:31:22.864Z,100603.31
2019-06-07T19:33:53.115Z,100604.88
2019-06-07T19:36:22.698Z,100600.91
2019-06-07T19:38:52.212Z,100592.87
2019-06-07T19:41:21.766Z,100609.58
2019-06-07T19:43:52.108Z,100612.60
2019-06-07T19:46:21.819Z,100615.91
2019-06-07T19:48:52.487Z,100624.72
2019-06-07T19:51:22.043Z,100634.22
2019-06-07T19:53:52.856Z,100635.78
2019-06-07T19:56:22.542Z,100632.47
2019-06-07T19:58:53.397Z,100639.12
2019-06-07T20:01:22.959Z,100640.55
2019-06-07T20:03:53.747Z,100639.94
2019-06-07T20:06:23.368Z,100646.38
2019-06-07T20:08:52.872Z,100639.39
2019-06-07T20:11:22.437Z,100629.77
2019-06-07T20:13:52.039Z,100636.24
2019-06-07T20:16:21.584Z,100636.20
2019-06-07T20:18:53.137Z,100635.62
2019-06-07T20:21:22.726Z,100641.72
2019-06-07T20:23:52.278Z,100636.05
2019-06-07T20:26:21.826Z,100636.67
2019-06-07T20:28:51.350Z,100652.86
2019-06-07T20:31:20.861Z,100655.34
2019-06-07T20:33:50.427Z,100666.20
2019-06-07T20:36:20.191Z,100673.15
2019-06-07T20:38:49.784Z,100687.59
2019-06-07T20:41:19.457Z,100683.49
2019-06-07T20:43:49.006Z,100679.94
2019-06-07T20:46:18.519Z,100674.99
2019-06-07T20:48:48.092Z,100669.12
2019-06-07T20:51:17.749Z,100679.88
2019-06-07T20:53:47.413Z,100676.95
2019-06-07T20:56:16.978Z,100674.56
2019-06-07T20:58:46.856Z,100680.68
2019-06-07T21:01:16.424Z,100676.41
2019-06-07T21:03:46.155Z,100684.37
2019-06-07T21:06:16.659Z,100678.84
2019-06-07T21:08:46.203Z,100671.44
2019-06-07T21:11:16.311Z,100678.10
2019-06-07T21:13:45.825Z,100669.97
2019-06-07T21:16:15.497Z,100670.05
2019-06-07T21:18:45.041Z,100663.63
2019-06-07T21:21:14.553Z,100659.69
2019-06-07T21:23:44.138Z,100660.16
2019-06-07T21:26:13.961Z,100666.41
2019-06-07T21:28:43.470Z,100671.36
2019-06-07T21:31:12.981Z,100670.89
2019-06-07T21:33:42.558Z,100668.22
2019-06-07T21:36:12.227Z,100674.00
2019-06-07T21:38:41.733Z,100683.41
2019-06-07T21:41:12.590Z,100686.60
2019-06-07T21:43:42.235Z,100694.80
2019-06-07T21:46:19.608Z,100706.09
2019-06-07T21:48:46.680Z,100740.11
2019-06-07T21:51:16.333Z,100835.08
2019-06-07T21:53:45.930Z,100856.17
2019-06-07T21:56:15.500Z,100886.61
2019-06-07T21:58:45.042Z,100929.17
2019-06-07T22:01:19.118Z,100944.73
2019-06-07T22:03:49.635Z,100933.16
2019-06-07T22:06:19.323Z,100929.78
2019-06-07T22:08:49.854Z,100919.76
2019-06-07T22:11:19.546Z,100920.56
2019-06-07T22:13:49.457Z,100895.52
2019-06-07T22:16:28.610Z,100850.89
2019-06-07T22:18:50.505Z,100852.24
2019-06-07T22:21:20.078Z,100817.38
2019-06-07T22:23:49.609Z,100809.61
2019-06-07T22:26:19.168Z,100841.27
2019-06-07T22:28:48.959Z,100829.50
2019-06-07T22:31:19.270Z,100847.09
2019-06-07T22:33:48.911Z,100885.06
2019-06-07T22:36:19.472Z,100914.53
2019-06-07T22:38:49.185Z,100932.59
2019-06-07T22:41:18.768Z,100924.39
2019-06-07T22:43:48.346Z,100917.91
2019-06-07T22:46:19.224Z,100909.23
2019-06-07T22:48:48.971Z,100912.98
2019-06-07T22:51:18.500Z,100908.36
2019-06-07T22:53:47.998Z,100909.01
2019-06-07T22:56:28.328Z,100916.50
2019-06-07T22:58:57.977Z,100903.66
2019-06-07T23:01:27.556Z,100911.92
2019-06-07T23:03:57.199Z,100911.55
2019-06-07T23:06:26.782Z,100912.95
2019-06-07T23:08:56.276Z,100922.23
2019-06-07T23:11:25.825Z,100933.41
2019-06-07T23:13:55.335Z,100934.34
2019-06-07T23:16:24.836Z,100947.95
2019-06-07T23:18:54.467Z,100932.78
2019-06-07T23:21:24.050Z,100922.73
2019-06-07T23:23:53.584Z,100928.46
2019-06-07T23:26:23.840Z,100913.97
2019-06-07T23:28:53.341Z,100921.53
2019-06-07T23:31:22.864Z,100906.66
2019-06-07T23:33:52.492Z,100895.58
2019-06-07T23:36:22.002Z,100894.00
2019-06-07T23:38:51.499Z,100883.95
2019-06-07T23:41:22.343Z,100884.77
2019-06-07T23:43:52.331Z,100902.73
2019-06-07T23:46:21.873Z,100902.49
2019-06-07T23:48:51.466Z,100896.25
2019-06-07T23:51:21.989Z,100885.30
2019-06-07T23:53:52.184Z,100880.33
2019-06-07T23:56:22.229Z,100857.14
2019-06-07T23:58:52.022Z,100859.22
